Home > Products > Valid Products > TAF

000
FTUS42 KTBW 020258 AAA
TAFTPA
TAF AMD
KTPA 020258Z 0203/0224 VRB04KT P6SM FEW250
     FM021500 14005KT P6SM SCT035 SCT250
     FM021800 26008KT P6SM FEW040 SCT250=



000
FTUS42 KTBW 012338
TAFFMY
TAF
KFMY 012338Z 0200/0224 28008KT P6SM FEW200
     FM020300 VRB04KT P6SM FEW250
     FM021400 12006KT P6SM SCT040
     FM021700 22009KT P6SM SCT045=



000
FTUS42 KTBW 012338
TAFTPA
TAF
KTPA 012338Z 0200/0224 27009KT P6SM FEW200
     FM020200 VRB04KT P6SM FEW200
     FM021500 14005KT P6SM SCT035
     FM021800 26008KT P6SM FEW040 SCT250=



000
FTUS42 KTBW 012338
TAFSRQ
TAF
KSRQ 012338Z 0200/0224 29008KT P6SM SCT200
     FM020300 VRB04KT P6SM FEW200
     FM021400 08004KT P6SM FEW040
     FM021800 26009KT P6SM FEW040 SCT250=



000
FTUS42 KTBW 012338
TAFTPA
TAF
KTPA 012338Z 0200/0224 27009KT P6SM FEW200
     FM020200 VRB04KT P6SM FEW200
     FM021500 14005KT P6SM SCT035
     FM021800 26008KT P6SM FEW040 SCT250=



000
FTUS42 KTBW 012338
TAFPIE
TAF
KPIE 012338Z 0200/0224 28008KT P6SM SCT200
     FM020400 VRB04KT P6SM FEW200
     FM021500 08006KT P6SM SCT040
     FM021800 31008KT P6SM FEW040 SCT250=



000
FTUS42 KTBW 012338
TAFSRQ
TAF
KSRQ 012338Z 0200/0224 29008KT P6SM SCT200
     FM020300 VRB04KT P6SM FEW200
     FM021400 08004KT P6SM FEW040
     FM021800 26009KT P6SM FEW040 SCT250=



000
FTUS42 KTBW 012338
TAFRSW
TAF
KRSW 012338Z 0200/0224 27007KT P6SM FEW045
     FM020300 VRB03KT P6SM FEW200
     FM021100 01004KT 5SM BR SCT200
     FM021300 05004KT P6SM FEW035 SCT200
     FM021500 13006KT P6SM SCT040 SCT200
     FM021700 23007KT P6SM SCT045=



000
FTUS42 KTBW 012338
TAFFMY
TAF
KFMY 012338Z 0200/0224 28008KT P6SM FEW200
     FM020300 VRB04KT P6SM FEW250
     FM021400 12006KT P6SM SCT040
     FM021700 22009KT P6SM SCT045=



000
FTUS42 KTBW 012102 AAA
TAFTPA
TAF AMD
KTPA 012102Z 0121/0218 27009KT P6SM FEW040 FEW200
     FM020200 32004KT P6SM FEW200
     FM020500 01004KT P6SM FEW200
     FM021500 14005KT P6SM SCT035=



000
FTUS42 KTBW 011737
TAFRSW
TAF
KRSW 011737Z 0118/0218 24005KT P6SM FEW040
     FM012100 27010KT P6SM FEW045
     FM020300 VRB03KT P6SM FEW200
     FM021100 01004KT 5SM BR SCT200
     FM021300 05004KT P6SM FEW035 SCT200
     FM021500 13006KT P6SM SCT040 SCT200=



000
FTUS42 KTBW 011737
TAFFMY
TAF
KFMY 011737Z 0118/0218 30004KT P6SM FEW150 FEW200
     FM012100 28010KT P6SM FEW200
     FM020300 04003KT P6SM FEW250
     FM021500 12006KT P6SM SCT040=



000
FTUS42 KTBW 011737
TAFSRQ
TAF
KSRQ 011737Z 0118/0218 29010KT P6SM FEW200
     FM020300 VRB04KT P6SM FEW200
     FM021400 08004KT P6SM FEW040=



000
FTUS42 KTBW 011737
TAFPIE
TAF
KPIE 011737Z 0118/0218 31010KT P6SM SCT200
     FM020500 VRB04KT P6SM FEW200
     FM021500 08006KT P6SM SCT040=



000
FTUS42 KTBW 011737
TAFTPA
TAF
KTPA 011737Z 0118/0218 25008KT P6SM SCT040
     FM012100 27011KT P6SM FEW040
     FM020200 32004KT P6SM FEW200
     FM020500 01004KT P6SM FEW200
     FM021500 14005KT P6SM SCT035=



000
FTUS42 KTBW 011737
TAFFMY
TAF
KFMY 011737Z 0118/0218 30004KT P6SM FEW150 FEW200
     FM012100 28010KT P6SM FEW200
     FM020300 04003KT P6SM FEW250
     FM021500 12006KT P6SM SCT040=



000
FTUS42 KTBW 011737
TAFRSW
TAF
KRSW 011737Z 0118/0218 24005KT P6SM FEW040
     FM012100 27010KT P6SM FEW045
     FM020300 VRB03KT P6SM FEW200
     FM021100 01004KT 5SM BR SCT200
     FM021300 05004KT P6SM FEW035 SCT200
     FM021500 13006KT P6SM SCT040 SCT200=



000
FTUS42 KTBW 011737
TAFTPA
TAF
KTPA 011737Z 0118/0218 25008KT P6SM SCT040
     FM012100 27011KT P6SM FEW040
     FM020200 32004KT P6SM FEW200
     FM020500 01004KT P6SM FEW200
     FM021500 14005KT P6SM SCT035=



000
FTUS42 KTBW 011737
TAFSRQ
TAF
KSRQ 011737Z 0118/0218 29010KT P6SM FEW200
     FM020300 VRB04KT P6SM FEW200
     FM021400 08004KT P6SM FEW040=



000
FTUS42 KTBW 011737
TAFPIE
TAF
KPIE 011737Z 0118/0218 31010KT P6SM SCT200
     FM020500 VRB04KT P6SM FEW200
     FM021500 08006KT P6SM SCT040=



000
FTUS42 KTBW 011506 AAA
TAFTPA
TAF AMD
KTPA 011506Z 0115/0212 25007KT P6SM FEW040 SCT250
     FM011700 28010KT P6SM FEW040 SCT250
     FM020200 VRB03KT P6SM SCT250=



000
FTUS42 KTBW 011124
TAFTPA
TAF
KTPA 011124Z 0112/0212 25007KT P6SM FEW250
     FM011700 28010KT P6SM FEW040 SCT250
     FM020200 VRB03KT P6SM SCT250=



000
FTUS42 KTBW 011124
TAFRSW
TAF
KRSW 011124Z 0112/0212 00000KT 6SM BCFG FEW250
      TEMPO 0112/0113 5SM BR
     FM011400 VRB03KT P6SM SCT250
     FM011800 28010KT P6SM FEW050 SCT250
     FM020200 33003KT P6SM SCT250=



000
FTUS42 KTBW 011124
TAFFMY
TAF
KFMY 011124Z 0112/0212 00000KT P6SM FEW250
     FM011400 VRB04KT P6SM SCT250
     FM011800 28011KT P6SM FEW050 SCT250
     FM020200 33003KT P6SM SCT250=



000
FTUS42 KTBW 011124
TAFSRQ
TAF
KSRQ 011124Z 0112/0212 25005KT P6SM FEW250
      TEMPO 0112/0113 5SM BR
     FM011400 25006KT P6SM SCT250
     FM011800 29012KT P6SM FEW040 SCT250
     FM020200 VRB04KT P6SM SCT250=



000
FTUS42 KTBW 011124
TAFPIE
TAF
KPIE 011124Z 0112/0212 23003KT P6SM FEW005 FEW250
      TEMPO 0112/0113 5SM BR
     FM011400 25006KT P6SM SCT250
     FM011800 27011KT P6SM FEW040 SCT250
     FM020200 VRB03KT P6SM SCT250=



000
FTUS42 KTBW 010911 AAA
TAFSRQ
TAF AMD
KSRQ 010911Z 0109/0206 30005KT 5SM BR FEW003 FEW250
      TEMPO 0109/0113 1SM BR SCT005
     FM011400 25006KT P6SM SCT250
     FM011800 29012KT P6SM FEW040 SCT250
     FM020200 33004KT P6SM SCT250=



000
FTUS42 KTBW 010905 AAA
TAFTPA
TAF AMD
KTPA 010905Z 0109/0206 26006KT P6SM FEW250
     FM011400 27006KT P6SM SCT250
     FM011700 28010KT P6SM FEW040 SCT250
     FM020200 30004KT P6SM SCT250=



000
FTUS42 KTBW 010905 AAA
TAFTPA
TAF AMD
KTPA 010905Z 0109/0206 26006KT P6SM FEW250
     FM011400 27006KT P6SM SCT250
     FM011700 28010KT P6SM FEW040 SCT250
     FM020200 30004KT P6SM SCT250=



000
FTUS42 KTBW 010800 AAA
TAFPIE
TAF AMD
KPIE 010800Z 0108/0206 VRB03KT 5SM BR FEW005 FEW250
      TEMPO 0108/0112 1/2SM FG FEW005
     FM011400 22006KT P6SM SCT250
     FM011800 27011KT P6SM FEW040 SCT250
     FM020200 30003KT P6SM SCT250=



000
FTUS42 KTBW 010530
TAFPIE
TAF
KPIE 010530Z 0106/0206 25004KT P6SM FEW250
     FM011400 22006KT P6SM SCT250
     FM011800 27011KT P6SM FEW040 SCT250
     FM020200 30003KT P6SM SCT250=



000
FTUS42 KTBW 010530
TAFTPA
TAF
KTPA 010530Z 0106/0206 29004KT P6SM FEW250
     FM011400 27006KT P6SM SCT250
     FM011700 28010KT P6SM FEW040 SCT250
     FM020200 30004KT P6SM SCT250=



000
FTUS42 KTBW 010530
TAFRSW
TAF
KRSW 010530Z 0106/0206 VRB03KT P6SM FEW250
     FM011400 VRB03KT P6SM SCT250
     FM011800 28010KT P6SM FEW050 SCT250
     FM020200 33003KT P6SM SCT250=



000
FTUS42 KTBW 010530
TAFSRQ
TAF
KSRQ 010530Z 0106/0206 30005KT P6SM FEW250
     FM011400 25006KT P6SM SCT250
     FM011800 29012KT P6SM FEW040 SCT250
     FM020200 33004KT P6SM SCT250=



000
FTUS42 KTBW 010530
TAFFMY
TAF
KFMY 010530Z 0106/0206 VRB03KT P6SM FEW250
     FM011400 VRB04KT P6SM SCT250
     FM011800 28011KT P6SM FEW050 SCT250
     FM020200 33003KT P6SM SCT250=



000
FTUS42 KTBW 010257 AAD
TAFTPA
TAF AMD
KTPA 010257Z 0103/0124 26004KT P6SM SCT250
     FM010900 26004KT P6SM BKN250
     FM011400 27006KT P6SM SCT250
     FM011700 28010KT P6SM FEW040 SCT250=



000
FTUS42 KTBW 312347 AAA
TAFFMY
TAF AMD
KFMY 312347Z 0100/0124 28009KT P6SM FEW250
     FM010300 28004KT P6SM FEW250
     FM010600 00000KT P6SM FEW250
      TEMPO 0111/0113 5SM BR
     FM011400 VRB04KT P6SM SCT250
     FM011800 29008KT P6SM FEW050 SCT250=



000
FTUS42 KTBW 312347 AAA
TAFPIE
TAF AMD
KPIE 312347Z 0100/0124 28008KT P6SM FEW250
     FM010200 26005KT P6SM SCT250
     FM010900 26005KT P6SM BKN250
     FM011400 27007KT P6SM SCT250
     FM011800 29011KT P6SM FEW040 SCT250=



000
FTUS42 KTBW 312347 AAC
TAFTPA
TAF AMD
KTPA 312347Z 0100/0124 27008KT P6SM FEW250
     FM010200 26004KT P6SM SCT250
     FM010900 26004KT P6SM BKN250
     FM011400 27006KT P6SM SCT250
     FM011700 28010KT P6SM FEW040 SCT250=



000
FTUS42 KTBW 312347 AAA
TAFRSW
TAF AMD
KRSW 312347Z 0100/0124 27009KT P6SM FEW250
     FM010300 26004KT P6SM FEW250
     FM010600 00000KT P6SM FEW250
      TEMPO 0111/0113 5SM BR
     FM011400 VRB03KT P6SM SCT250
     FM011800 28008KT P6SM FEW050 SCT250=



000
FTUS42 KTBW 312347 AAA
TAFSRQ
TAF AMD
KSRQ 312347Z 0100/0124 29008KT P6SM SKC
     FM010300 28004KT P6SM FEW250
     FM010900 26004KT P6SM BKN250
     FM011400 29006KT P6SM SCT250
     FM011800 28010KT P6SM FEW040 SCT250=



000
FTUS42 KTBW 312347 AAA
TAFFMY
TAF AMD
KFMY 312347Z 0100/0124 28009KT P6SM FEW250
     FM010300 28004KT P6SM FEW250
     FM010600 00000KT P6SM FEW250
      TEMPO 0111/0113 5SM BR
     FM011400 VRB04KT P6SM SCT250
     FM011800 29008KT P6SM FEW050 SCT250=



000
FTUS42 KTBW 312347 AAC
TAFTPA
TAF AMD
KTPA 312347Z 0100/0124 27008KT P6SM FEW250
     FM010200 26004KT P6SM SCT250
     FM010900 26004KT P6SM BKN250
     FM011400 27006KT P6SM SCT250
     FM011700 28010KT P6SM FEW040 SCT250=



000
FTUS42 KTBW 312347 AAA
TAFSRQ
TAF AMD
KSRQ 312347Z 0100/0124 29008KT P6SM SKC
     FM010300 28004KT P6SM FEW250
     FM010900 26004KT P6SM BKN250
     FM011400 29006KT P6SM SCT250
     FM011800 28010KT P6SM FEW040 SCT250=



000
FTUS42 KTBW 312347 AAA
TAFPIE
TAF AMD
KPIE 312347Z 0100/0124 28008KT P6SM FEW250
     FM010200 26005KT P6SM SCT250
     FM010900 26005KT P6SM BKN250
     FM011400 27007KT P6SM SCT250
     FM011800 29011KT P6SM FEW040 SCT250=



000
FTUS42 KTBW 312347 AAA
TAFRSW
TAF AMD
KRSW 312347Z 0100/0124 27009KT P6SM FEW250
     FM010300 26004KT P6SM FEW250
     FM010600 00000KT P6SM FEW250
      TEMPO 0111/0113 5SM BR
     FM011400 VRB03KT P6SM SCT250
     FM011800 28008KT P6SM FEW050 SCT250=



000
FTUS42 KTBW 312103 AAB
TAFTPA
TAF AMD
KTPA 312103Z 3121/0118 28012G20KT P6SM SCT035 SCT250
     FM010100 27004KT P6SM SCT250
     FM010700 00000KT P6SM BKN250
     FM011700 29006KT P6SM FEW040=



000
FTUS42 KTBW 311817 AAA
TAFTPA
TAF AMD
KTPA 311817Z 3118/0118 29012G20KT P6SM FEW040 SCT250
     FM010100 27004KT P6SM SCT250
     FM010700 00000KT P6SM BKN250
     FM011700 29006KT P6SM FEW040=



000
FTUS42 KTBW 311722
TAFTPA
TAF
KTPA 311722Z 3118/0118 29011KT P6SM FEW040 SCT250
     FM010200 27004KT P6SM SCT250
     FM010700 00000KT P6SM BKN250
     FM011700 29006KT P6SM FEW040=



000
FTUS42 KTBW 311722
TAFPIE
TAF
KPIE 311722Z 3118/0118 29007KT P6SM FEW050 FEW250
     FM010700 VRB03KT P6SM BKN250=



000
FTUS42 KTBW 311722
TAFSRQ
TAF
KSRQ 311722Z 3118/0118 29011KT P6SM FEW040
     FM010100 29005KT P6SM FEW250
     FM010800 VRB03KT P6SM BKN250
     FM011400 29007KT P6SM FEW040 BKN250=



000
FTUS42 KTBW 311722
TAFFMY
TAF
KFMY 311722Z 3118/0118 VRB03KT P6SM FEW250
     FM312100 27009KT P6SM FEW250
     FM010400 VRB03KT P6SM BKN250
      TEMPO 0111/0113 5SM BR=



000
FTUS42 KTBW 311722
TAFRSW
TAF
KRSW 311722Z 3118/0118 VRB03KT P6SM FEW250
     FM312100 27008KT P6SM FEW250
     FM010400 VRB03KT P6SM BKN250
      TEMPO 0111/0113 5SM BR=



000
FTUS42 KTBW 311722
TAFFMY
TAF
KFMY 311722Z 3118/0118 VRB03KT P6SM FEW250
     FM312100 27009KT P6SM FEW250
     FM010400 VRB03KT P6SM BKN250
      TEMPO 0111/0113 5SM BR=



000
FTUS42 KTBW 311722
TAFRSW
TAF
KRSW 311722Z 3118/0118 VRB03KT P6SM FEW250
     FM312100 27008KT P6SM FEW250
     FM010400 VRB03KT P6SM BKN250
      TEMPO 0111/0113 5SM BR=



000
FTUS42 KTBW 311722
TAFPIE
TAF
KPIE 311722Z 3118/0118 29007KT P6SM FEW050 FEW250
     FM010700 VRB03KT P6SM BKN250=



000
FTUS42 KTBW 311722
TAFTPA
TAF
KTPA 311722Z 3118/0118 29011KT P6SM FEW040 SCT250
     FM010200 27004KT P6SM SCT250
     FM010700 00000KT P6SM BKN250
     FM011700 29006KT P6SM FEW040=



000
FTUS42 KTBW 311722
TAFSRQ
TAF
KSRQ 311722Z 3118/0118 29011KT P6SM FEW040
     FM010100 29005KT P6SM FEW250
     FM010800 VRB03KT P6SM BKN250
     FM011400 29007KT P6SM FEW040 BKN250=



000
FTUS42 KTBW 311604 AAA
TAFTPA
TAF AMD
KTPA 311604Z 3116/0112 28011G17KT P6SM SCT030 BKN040
      TEMPO 3116/3117 BKN030
     FM010300 25005KT P6SM SKC=



000
FTUS42 KTBW 311604 AAA
TAFTPA
TAF AMD
KTPA 311604Z 3116/0112 28011G17KT P6SM SCT030 BKN040
      TEMPO 3116/3117 BKN030
     FM010300 25005KT P6SM SKC=



000
FTUS42 KTBW 311128
TAFPIE
TAF
KPIE 311128Z 3112/0112 24005KT P6SM SKC
     FM311500 30008KT P6SM FEW030 SCT250
     FM312000 27011KT P6SM FEW250
     FM010300 25005KT P6SM SKC=



000
FTUS42 KTBW 311128
TAFFMY
TAF
KFMY 311128Z 3112/0112 VRB03KT P6SM SKC
     FM311500 05004KT P6SM FEW250
     FM312000 28008KT P6SM FEW250
     FM010300 30003KT P6SM SKC=



000
FTUS42 KTBW 311128
TAFTPA
TAF
KTPA 311128Z 3112/0112 26005KT P6SM SKC
     FM311500 30007KT P6SM FEW030 SCT250
     FM312000 29010KT P6SM FEW250
     FM010300 25005KT P6SM SKC=



000
FTUS42 KTBW 311128
TAFSRQ
TAF
KSRQ 311128Z 3112/0112 32004KT P6SM SKC
     FM311500 31006KT P6SM FEW030 SCT250
     FM311900 26010KT P6SM FEW250
     FM010300 27003KT P6SM SKC=



000
FTUS42 KTBW 311128
TAFRSW
TAF
KRSW 311128Z 3112/0112 VRB03KT P6SM SKC
     FM311500 05004KT P6SM FEW250
     FM312000 26008KT P6SM FEW250
     FM010300 27003KT P6SM SKC=



000
FTUS42 KTBW 310856 AAA
TAFTPA
TAF AMD
KTPA 310856Z 3109/0106 27007KT P6SM SKC
     FM311500 30007KT P6SM FEW030 SCT250
     FM312000 29010KT P6SM FEW250
     FM010300 25005KT P6SM SKC=



000
FTUS42 KTBW 310532
TAFTPA
TAF
KTPA 310532Z 3106/0106 27007KT P6SM SKC
     FM311500 30007KT P6SM FEW030 SCT250
     FM312000 29010KT P6SM FEW250
     FM010300 25005KT P6SM SKC=



000
FTUS42 KTBW 310532
TAFSRQ
TAF
KSRQ 310532Z 3106/0106 32004KT P6SM SKC
     FM311500 31006KT P6SM FEW030 SCT250
     FM311900 26010KT P6SM FEW250
     FM010300 27003KT P6SM SKC=



000
FTUS42 KTBW 310532
TAFFMY
TAF
KFMY 310532Z 3106/0106 VRB03KT P6SM SKC
     FM311500 05004KT P6SM FEW250
     FM312000 28008KT P6SM FEW250
     FM010300 30003KT P6SM SKC=



000
FTUS42 KTBW 310532
TAFPIE
TAF
KPIE 310532Z 3106/0106 26007KT P6SM SKC
     FM311500 30008KT P6SM FEW030 SCT250
     FM312000 27011KT P6SM FEW250
     FM010300 25005KT P6SM SKC=



000
FTUS42 KTBW 310532
TAFRSW
TAF
KRSW 310532Z 3106/0106 VRB03KT P6SM SKC
     FM311500 05004KT P6SM FEW250
     FM312000 26008KT P6SM FEW250
     FM010300 27003KT P6SM SKC=



000
FTUS42 KTBW 310532
TAFPIE
TAF
KPIE 310532Z 3106/0106 26007KT P6SM SKC
     FM311500 30008KT P6SM FEW030 SCT250
     FM312000 27011KT P6SM FEW250
     FM010300 25005KT P6SM SKC=



000
FTUS42 KTBW 310532
TAFFMY
TAF
KFMY 310532Z 3106/0106 VRB03KT P6SM SKC
     FM311500 05004KT P6SM FEW250
     FM312000 28008KT P6SM FEW250
     FM010300 30003KT P6SM SKC=



000
FTUS42 KTBW 310532
TAFSRQ
TAF
KSRQ 310532Z 3106/0106 32004KT P6SM SKC
     FM311500 31006KT P6SM FEW030 SCT250
     FM311900 26010KT P6SM FEW250
     FM010300 27003KT P6SM SKC=



000
FTUS42 KTBW 310532
TAFTPA
TAF
KTPA 310532Z 3106/0106 27007KT P6SM SKC
     FM311500 30007KT P6SM FEW030 SCT250
     FM312000 29010KT P6SM FEW250
     FM010300 25005KT P6SM SKC=



000
FTUS42 KTBW 310532
TAFRSW
TAF
KRSW 310532Z 3106/0106 VRB03KT P6SM SKC
     FM311500 05004KT P6SM FEW250
     FM312000 26008KT P6SM FEW250
     FM010300 27003KT P6SM SKC=



000
FTUS42 KTBW 310300 AAA
TAFTPA
TAF AMD
KTPA 310300Z 3103/3124 26005KT P6SM SKC
     FM311500 30007KT P6SM FEW030 SCT250
     FM312000 29010KT P6SM FEW250=



000
FTUS42 KTBW 302336
TAFSRQ
TAF
KSRQ 302336Z 3100/3124 29004KT P6SM SKC
     FM311500 34006KT P6SM FEW030 SCT250
     FM311900 26011KT P6SM FEW250=



000
FTUS42 KTBW 302336
TAFFMY
TAF
KFMY 302336Z 3100/3124 29004KT P6SM SKC
     FM311500 05004KT P6SM FEW250
     FM312100 26008KT P6SM FEW250=



000
FTUS42 KTBW 302336
TAFRSW
TAF
KRSW 302336Z 3100/3124 VRB03KT P6SM SKC
     FM311500 05004KT P6SM FEW250
     FM312100 26008KT P6SM FEW250=



000
FTUS42 KTBW 302336
TAFTPA
TAF
KTPA 302336Z 3100/3124 26005KT P6SM SKC
     FM311500 30007KT P6SM FEW030 SCT250
     FM312000 29010KT P6SM FEW250=



000
FTUS42 KTBW 302336
TAFPIE
TAF
KPIE 302336Z 3100/3124 29006KT P6SM SKC
     FM311500 30008KT P6SM FEW030 SCT250
     FM312000 29012KT P6SM FEW250=



000
FTUS42 KTBW 302100 AAA
TAFTPA
TAF AMD
KTPA 302100Z 3021/3118 26008KT P6SM SKC
     FM310000 28005KT P6SM FEW250
     FM310500 VRB03KT P6SM FEW250
     FM311500 33006KT P6SM FEW250=



000
FTUS42 KTBW 301726
TAFPIE
TAF
KPIE 301726Z 3018/3118 05005KT P6SM SKC
     FM302100 28007KT P6SM SKC
     FM310300 VRB03KT P6SM SKC
     FM311500 33006KT P6SM FEW250=



000
FTUS42 KTBW 301726
TAFTPA
TAF
KTPA 301726Z 3018/3118 24007KT P6SM FEW250
     FM310000 28005KT P6SM FEW250
     FM310500 VRB03KT P6SM FEW250
     FM311500 33006KT P6SM FEW250=



000
FTUS42 KTBW 301726
TAFRSW
TAF
KRSW 301726Z 3018/3118 36007KT P6SM SKC
     FM302200 01006KT P6SM SKC
     FM310300 VRB03KT P6SM SKC
     FM311500 05005KT P6SM SKC=



000
FTUS42 KTBW 301726
TAFSRQ
TAF
KSRQ 301726Z 3018/3118 27008KT P6SM SKC
     FM310300 VRB03KT P6SM SKC
     FM311500 34005KT P6SM SKC=



000
FTUS42 KTBW 301726
TAFFMY
TAF
KFMY 301726Z 3018/3118 31006KT P6SM SKC
     FM302200 33006KT P6SM SKC
     FM310300 VRB03KT P6SM SKC
     FM311500 04005KT P6SM SKC=



000
FTUS42 KTBW 301504 AAA
TAFTPA
TAF AMD
KTPA 301504Z 3015/3112 VRB03KT P6SM SKC
     FM301700 25006KT P6SM SKC
     FM302100 30006KT P6SM FEW250=



000
FTUS42 KTBW 301504 AAA
TAFTPA
TAF AMD
KTPA 301504Z 3015/3112 VRB03KT P6SM SKC
     FM301700 25006KT P6SM SKC
     FM302100 30006KT P6SM FEW250=



000
FTUS42 KTBW 301124
TAFTPA
TAF
KTPA 301124Z 3012/3112 VRB03KT P6SM SKC
     FM301700 22006KT P6SM SKC
     FM302100 30006KT P6SM FEW250=



000
FTUS42 KTBW 301124
TAFFMY
TAF
KFMY 301124Z 3012/3112 06004KT P6SM SKC
     FM301800 32008KT P6SM FEW250
     FM310100 34004KT P6SM FEW250=



000
FTUS42 KTBW 301124
TAFTPA
TAF
KTPA 301124Z 3012/3112 VRB03KT P6SM SKC
     FM301700 22006KT P6SM SKC
     FM302100 30006KT P6SM FEW250=



000
FTUS42 KTBW 301124
TAFFMY
TAF
KFMY 301124Z 3012/3112 06004KT P6SM SKC
     FM301800 32008KT P6SM FEW250
     FM310100 34004KT P6SM FEW250=



000
FTUS42 KTBW 301124
TAFRSW
TAF
KRSW 301124Z 3012/3112 05005KT P6SM SKC
     FM301900 30008KT P6SM FEW250
     FM310000 31004KT P6SM FEW250=



000
FTUS42 KTBW 301124
TAFSRQ
TAF
KSRQ 301124Z 3012/3112 10004KT P6SM SKC
     FM301700 28008KT P6SM FEW250
     FM310100 28005KT P6SM FEW250=



000
FTUS42 KTBW 301124
TAFSRQ
TAF
KSRQ 301124Z 3012/3112 10004KT P6SM SKC
     FM301700 28008KT P6SM FEW250
     FM310100 28005KT P6SM FEW250=



000
FTUS42 KTBW 301124
TAFPIE
TAF
KPIE 301124Z 3012/3112 10004KT P6SM SKC
     FM301800 29006KT P6SM SKC
     FM302100 28010KT P6SM FEW250
     FM310100 27006KT P6SM FEW250=



000
FTUS42 KTBW 301124
TAFRSW
TAF
KRSW 301124Z 3012/3112 05005KT P6SM SKC
     FM301900 30008KT P6SM FEW250
     FM310000 31004KT P6SM FEW250=



000
FTUS42 KTBW 300855 AAA
TAFTPA
TAF AMD
KTPA 300855Z 3009/3106 VRB03KT P6SM SKC
     FM301700 22006KT P6SM SKC
     FM302100 30006KT P6SM FEW250=



000
FTUS42 KTBW 300520
TAFFMY
TAF
KFMY 300520Z 3006/3106 07005KT P6SM SKC
     FM301800 32008KT P6SM FEW250
     FM310100 34004KT P6SM FEW250=



000
FTUS42 KTBW 300520
TAFSRQ
TAF
KSRQ 300520Z 3006/3106 10006KT P6SM SKC
     FM301700 28008KT P6SM FEW250=



000
FTUS42 KTBW 300520
TAFTPA
TAF
KTPA 300520Z 3006/3106 07003KT P6SM SKC
     FM301700 22006KT P6SM SKC
     FM302100 30006KT P6SM FEW250=



000
FTUS42 KTBW 300520
TAFPIE
TAF
KPIE 300520Z 3006/3106 10005KT P6SM SKC
     FM301800 29006KT P6SM SKC
     FM302100 28010KT P6SM FEW250
     FM310100 27006KT P6SM FEW250=



000
FTUS42 KTBW 300520
TAFRSW
TAF
KRSW 300520Z 3006/3106 05005KT P6SM SKC
     FM301900 30008KT P6SM FEW250
     FM310000 31004KT P6SM FEW250=



000
FTUS42 KTBW 300520
TAFPIE
TAF
KPIE 300520Z 3006/3106 10005KT P6SM SKC
     FM301800 29006KT P6SM SKC
     FM302100 28010KT P6SM FEW250
     FM310100 27006KT P6SM FEW250=



000
FTUS42 KTBW 300520
TAFFMY
TAF
KFMY 300520Z 3006/3106 07005KT P6SM SKC
     FM301800 32008KT P6SM FEW250
     FM310100 34004KT P6SM FEW250=



000
FTUS42 KTBW 300520
TAFTPA
TAF
KTPA 300520Z 3006/3106 07003KT P6SM SKC
     FM301700 22006KT P6SM SKC
     FM302100 30006KT P6SM FEW250=



000
FTUS42 KTBW 300520
TAFRSW
TAF
KRSW 300520Z 3006/3106 05005KT P6SM SKC
     FM301900 30008KT P6SM FEW250
     FM310000 31004KT P6SM FEW250=



000
FTUS42 KTBW 300520
TAFSRQ
TAF
KSRQ 300520Z 3006/3106 10006KT P6SM SKC
     FM301700 28008KT P6SM FEW250=



    US Dept of Commerce
    National Oceanic and Atmospheric Administration
    National Weather Service
    1325 East West Highway
    Silver Spring, MD 20910
    Page Author: NWS Internet Services Team
Disclaimer
Information Quality
Credits
Glossary
Privacy Policy
Freedom of Information Act (FOIA)
About Us
Career Opportunities